createdAt,value
2018-06-09T00:02:19.423Z,39.30
2018-06-09T00:04:47.495Z,39.30
2018-06-09T00:07:15.580Z,39.20
2018-06-09T00:09:43.663Z,39.30
2018-06-09T00:12:11.747Z,39.20
2018-06-09T00:14:39.847Z,39.30
2018-06-09T00:19:35.816Z,39.60
2018-06-09T00:22:03.904Z,39.60
2018-06-09T00:24:32.003Z,39.80
2018-06-09T00:27:00.088Z,39.80
2018-06-09T00:29:28.171Z,39.70
2018-06-09T00:31:56.248Z,39.70
2018-06-09T00:34:24.353Z,39.90
2018-06-09T00:36:52.458Z,39.90
2018-06-09T00:39:20.561Z,39.90
2018-06-09T00:41:48.673Z,39.90
2018-06-09T00:44:16.768Z,39.70
2018-06-09T00:46:44.849Z,39.60
2018-06-09T00:49:12.928Z,39.60
2018-06-09T00:51:41.008Z,39.70
2018-06-09T00:54:09.100Z,39.90
2018-06-09T00:56:44.269Z,40.20
2018-06-09T00:59:12.391Z,40.20
2018-06-09T01:01:47.140Z,40.30
2018-06-09T01:04:15.247Z,40.30
2018-06-09T01:06:43.343Z,40.20
2018-06-09T01:09:11.436Z,40.40
2018-06-09T01:11:39.523Z,40.50
2018-06-09T01:21:31.227Z,40.50
2018-06-09T01:23:59.334Z,40.60
2018-06-09T01:26:27.455Z,40.60
2018-06-09T01:28:55.554Z,41.20
2018-06-09T01:31:23.675Z,40.80
2018-06-09T01:33:51.758Z,40.60
2018-06-09T01:36:19.876Z,40.50
2018-06-09T01:38:47.957Z,40.50
2018-06-09T01:41:16.059Z,40.50
2018-06-09T01:43:44.133Z,40.50
2018-06-09T01:46:12.219Z,40.50
2018-06-09T01:51:08.175Z,40.60
2018-06-09T01:53:36.288Z,40.70
2018-06-09T01:56:04.400Z,40.80
2018-06-09T02:01:00.364Z,40.80
2018-06-09T02:03:28.485Z,40.80
2018-06-09T02:05:56.583Z,41.20
2018-06-09T02:08:24.687Z,41.00
2018-06-09T02:10:52.801Z,41.00
2018-06-09T02:13:20.918Z,41.20
2018-06-09T02:18:16.936Z,41.30
2018-06-09T02:20:45.049Z,41.30
2018-06-09T02:23:13.166Z,41.30
2018-06-09T02:25:41.273Z,41.40
2018-06-09T02:28:09.368Z,41.50
2018-06-09T02:30:37.464Z,41.60
2018-06-09T02:33:05.571Z,41.70
2018-06-09T02:35:33.697Z,41.80
2018-06-09T02:38:01.813Z,41.80
2018-06-09T02:40:29.926Z,41.70
2018-06-09T02:42:58.062Z,41.50
2018-06-09T02:45:26.162Z,41.50
2018-06-09T02:47:54.286Z,41.50
2018-06-09T02:50:22.398Z,41.60
2018-06-09T02:55:18.392Z,41.70
2018-06-09T02:57:46.493Z,41.90
2018-06-09T03:00:14.620Z,42.10
2018-06-09T03:02:42.712Z,42.00
2018-06-09T03:05:10.817Z,41.90
2018-06-09T03:07:38.952Z,42.10
2018-06-09T03:10:07.090Z,42.20
2018-06-09T03:12:35.196Z,42.20
2018-06-09T03:15:03.304Z,42.30
2018-06-09T03:17:31.418Z,42.10
2018-06-09T03:19:59.528Z,42.10
2018-06-09T03:22:27.637Z,42.10
2018-06-09T03:24:55.728Z,42.10
2018-06-09T03:29:51.731Z,42.30
2018-06-09T03:32:20.235Z,42.50
2018-06-09T03:34:48.348Z,42.50
2018-06-09T03:37:16.468Z,42.60
2018-06-09T03:39:44.573Z,42.60
2018-06-09T03:44:40.589Z,42.60
2018-06-09T03:47:08.700Z,42.40
2018-06-09T03:49:36.819Z,42.50
2018-06-09T03:52:04.977Z,42.40
2018-06-09T03:54:33.090Z,42.60
2018-06-09T03:57:01.200Z,42.70
2018-06-09T03:59:29.323Z,42.80
2018-06-09T04:01:57.444Z,42.60
2018-06-09T04:04:25.551Z,42.70
2018-06-09T04:06:53.665Z,42.80
2018-06-09T04:09:21.777Z,42.80
2018-06-09T04:11:49.893Z,42.80
2018-06-09T04:14:18.020Z,42.90
2018-06-09T04:16:48.636Z,42.90
2018-06-09T04:19:16.750Z,43.40
2018-06-09T04:21:44.926Z,42.90
2018-06-09T04:24:13.816Z,42.80
2018-06-09T04:26:41.953Z,42.50
2018-06-09T04:29:10.030Z,42.60
2018-06-09T04:31:38.151Z,42.70
2018-06-09T04:34:06.264Z,42.70
2018-06-09T04:36:34.429Z,42.70
2018-06-09T04:39:02.576Z,42.80
2018-06-09T04:41:30.711Z,42.80
2018-06-09T04:43:58.829Z,42.60
2018-06-09T04:46:26.945Z,42.50
2018-06-09T04:48:55.072Z,42.50
2018-06-09T04:53:51.065Z,42.10
2018-06-09T04:56:19.152Z,42.20
2018-06-09T04:58:47.236Z,42.20
2018-06-09T05:01:15.333Z,42.00
2018-06-09T05:03:43.436Z,42.10
2018-06-09T05:06:11.557Z,42.10
2018-06-09T05:08:39.663Z,42.30
2018-06-09T05:11:07.771Z,42.30
2018-06-09T05:13:35.902Z,42.20
2018-06-09T05:20:59.981Z,42.00
2018-06-09T05:23:28.140Z,42.00
2018-06-09T05:25:56.247Z,42.10
2018-06-09T05:28:24.360Z,42.20
2018-06-09T05:30:52.456Z,42.10
2018-06-09T05:33:20.565Z,42.30
2018-06-09T05:35:48.688Z,42.20
2018-06-09T05:38:16.792Z,42.30
2018-06-09T05:40:44.880Z,42.30
2018-06-09T05:43:12.969Z,42.20
2018-06-09T05:48:08.988Z,42.50
2018-06-09T05:50:37.087Z,42.40
2018-06-09T05:53:05.216Z,42.50
2018-06-09T05:55:33.325Z,42.50
2018-06-09T05:58:01.473Z,42.50
2018-06-09T06:00:29.589Z,42.40
2018-06-09T06:02:57.731Z,42.30
2018-06-09T06:05:25.792Z,42.20
2018-06-09T06:07:53.927Z,42.40
2018-06-09T06:10:22.039Z,43.00
2018-06-09T06:12:50.148Z,42.40
2018-06-09T06:15:18.278Z,42.50
2018-06-09T06:17:46.396Z,42.50
2018-06-09T06:20:14.493Z,42.40
2018-06-09T06:22:42.604Z,42.20
2018-06-09T06:25:10.705Z,42.70
2018-06-09T06:27:38.821Z,42.30
2018-06-09T06:30:06.924Z,42.20
2018-06-09T06:32:35.057Z,42.10
2018-06-09T06:35:03.140Z,42.00
2018-06-09T06:37:31.271Z,41.80
2018-06-09T06:39:59.391Z,41.60
2018-06-09T06:42:27.496Z,41.70
2018-06-09T06:44:55.644Z,41.60
2018-06-09T06:47:23.741Z,41.60
2018-06-09T06:49:51.859Z,41.60
2018-06-09T06:52:19.952Z,41.70
2018-06-09T06:54:48.093Z,41.80
2018-06-09T06:57:16.200Z,41.70
2018-06-09T06:59:44.312Z,41.60
2018-06-09T07:02:12.436Z,41.60
2018-06-09T07:04:40.556Z,42.10
2018-06-09T07:07:08.680Z,41.70
2018-06-09T07:09:36.816Z,41.80
2018-06-09T07:14:32.896Z,42.10
2018-06-09T07:17:00.997Z,42.70
2018-06-09T07:19:29.100Z,41.80
2018-06-09T07:21:57.241Z,41.80
2018-06-09T07:24:25.339Z,41.70
2018-06-09T07:26:53.456Z,41.70
2018-06-09T07:29:21.568Z,41.50
2018-06-09T07:31:49.672Z,41.40
2018-06-09T07:34:17.808Z,41.20
2018-06-09T07:36:46.061Z,41.20
2018-06-09T07:39:14.164Z,41.20
2018-06-09T07:41:42.256Z,41.20
2018-06-09T07:46:38.257Z,40.90
2018-06-09T07:49:06.383Z,40.90
2018-06-09T07:51:34.510Z,40.80
2018-06-09T07:54:02.611Z,40.80
2018-06-09T07:56:30.728Z,40.70
2018-06-09T07:58:58.840Z,40.80
2018-06-09T08:01:26.932Z,40.80
2018-06-09T08:03:55.048Z,40.80
2018-06-09T08:06:23.163Z,41.00
2018-06-09T08:08:51.374Z,40.80
2018-06-09T08:13:47.508Z,40.90
2018-06-09T08:16:15.608Z,40.70
2018-06-09T08:18:43.728Z,40.90
2018-06-09T08:21:11.820Z,40.90
2018-06-09T08:23:39.936Z,40.80
2018-06-09T08:26:08.108Z,40.70
2018-06-09T08:28:36.224Z,40.60
2018-06-09T08:31:04.357Z,40.70
2018-06-09T08:33:32.464Z,41.50
2018-06-09T08:36:00.652Z,40.80
2018-06-09T08:38:28.724Z,40.70
2018-06-09T08:40:57.005Z,40.50
2018-06-09T08:43:25.104Z,40.70
2018-06-09T08:45:53.203Z,40.70
2018-06-09T08:48:21.327Z,40.80
2018-06-09T08:50:49.512Z,40.60
2018-06-09T08:53:17.624Z,40.30
2018-06-09T08:55:45.784Z,40.10
2018-06-09T08:58:13.908Z,40.00
2018-06-09T09:00:41.996Z,40.20
2018-06-09T09:08:05.876Z,39.90
2018-06-09T09:10:33.985Z,39.50
2018-06-09T09:13:02.085Z,39.40
2018-06-09T09:15:30.199Z,39.00
2018-06-09T09:18:04.912Z,38.90
2018-06-09T09:20:33.023Z,38.30
2018-06-09T09:23:01.143Z,37.60
2018-06-09T09:25:29.252Z,37.30
2018-06-09T09:27:57.370Z,37.60
2018-06-09T09:30:25.473Z,36.90
2018-06-09T09:32:53.602Z,36.70
2018-06-09T09:35:21.753Z,36.40
2018-06-09T09:37:49.868Z,36.30
2018-06-09T09:40:18.000Z,36.40
2018-06-09T09:42:46.113Z,36.10
2018-06-09T09:45:14.224Z,36.20
2018-06-09T09:47:42.324Z,35.50
2018-06-09T09:50:10.435Z,36.10
2018-06-09T09:52:38.540Z,34.90
2018-06-09T09:55:06.683Z,34.20
2018-06-09T09:57:46.192Z,33.80
2018-06-09T10:00:18.553Z,33.40
2018-06-09T10:07:42.424Z,32.60
2018-06-09T10:10:10.520Z,32.30
2018-06-09T10:12:38.642Z,32.30
2018-06-09T10:15:06.769Z,32.40
2018-06-09T10:17:34.856Z,32.40
2018-06-09T10:20:02.968Z,32.60
2018-06-09T10:22:31.055Z,32.60
2018-06-09T10:24:59.155Z,32.40
2018-06-09T10:27:27.252Z,32.30
2018-06-09T10:29:55.368Z,32.20
2018-06-09T10:32:23.484Z,31.60
2018-06-09T10:37:19.492Z,31.40
2018-06-09T10:39:47.576Z,31.60
2018-06-09T10:42:15.680Z,31.80
2018-06-09T10:44:43.788Z,31.60
2018-06-09T10:47:11.907Z,31.00
2018-06-09T10:49:40.014Z,30.90
2018-06-09T10:52:08.131Z,30.70
2018-06-09T10:54:36.228Z,30.60
2018-06-09T10:57:04.376Z,30.70
2018-06-09T11:02:00.451Z,30.90
2018-06-09T11:04:28.548Z,31.30
2018-06-09T11:06:56.668Z,31.30
2018-06-09T11:09:24.768Z,31.50
2018-06-09T11:11:52.860Z,31.50
2018-06-09T11:14:20.963Z,31.80
2018-06-09T11:16:49.070Z,32.10
2018-06-09T11:19:17.181Z,32.40
2018-06-09T11:21:45.336Z,33.20
2018-06-09T11:24:13.449Z,32.80
2018-06-09T11:26:41.584Z,33.30
2018-06-09T11:29:09.689Z,33.60
2018-06-09T11:31:37.789Z,33.80
2018-06-09T11:36:33.788Z,34.00
2018-06-09T11:39:07.617Z,34.20
2018-06-09T11:41:36.166Z,34.20
2018-06-09T11:46:37.532Z,34.20
2018-06-09T11:49:05.656Z,34.00
2018-06-09T11:51:33.804Z,34.00
2018-06-09T11:54:01.940Z,34.10
2018-06-09T11:56:30.044Z,34.10
2018-06-09T12:01:26.085Z,34.10
2018-06-09T12:03:54.227Z,34.10
2018-06-09T12:06:22.320Z,34.00
2018-06-09T12:08:50.439Z,34.00
2018-06-09T12:11:18.545Z,33.90
2018-06-09T12:13:46.663Z,33.80
2018-06-09T12:16:14.761Z,33.80
2018-06-09T12:18:42.864Z,33.60
2018-06-09T12:21:10.982Z,33.50
2018-06-09T12:23:39.105Z,33.30
2018-06-09T12:26:07.209Z,33.30
2018-06-09T12:28:35.331Z,33.10
2018-06-09T12:31:03.428Z,32.90
2018-06-09T12:33:31.545Z,32.70
2018-06-09T12:35:59.726Z,32.60
2018-06-09T12:38:27.842Z,32.00
2018-06-09T12:40:55.927Z,31.70
2018-06-09T12:48:19.825Z,30.80
2018-06-09T12:50:48.842Z,30.00
2018-06-09T12:53:16.944Z,29.70
2018-06-09T12:55:45.063Z,29.30
2018-06-09T12:58:13.188Z,28.50
2018-06-09T13:00:41.292Z,27.70
2018-06-09T13:03:09.407Z,26.40
2018-06-09T13:05:37.532Z,24.70
2018-06-09T13:08:05.676Z,22.40
2018-06-09T13:10:33.800Z,20.50
2018-06-09T13:13:01.936Z,19.80
2018-06-09T13:15:30.071Z,19.60
2018-06-09T13:20:26.076Z,18.30
2018-06-09T13:22:54.199Z,17.90
2018-06-09T13:25:22.308Z,18.20
2018-06-09T13:27:50.433Z,18.20
2018-06-09T13:30:18.610Z,18.70
2018-06-09T13:35:14.648Z,18.30
2018-06-09T13:37:42.857Z,18.10
2018-06-09T13:40:10.867Z,17.80
2018-06-09T13:42:38.963Z,17.30
2018-06-09T13:47:34.976Z,18.10
2018-06-09T13:50:03.109Z,17.90
2018-06-09T13:52:32.035Z,18.10
2018-06-09T13:55:00.172Z,19.00
2018-06-09T13:57:28.287Z,19.50
2018-06-09T13:59:56.396Z,20.30
2018-06-09T14:02:24.517Z,21.10
2018-06-09T14:04:52.651Z,21.80
2018-06-09T14:07:20.772Z,22.40
2018-06-09T14:09:48.896Z,22.90
2018-06-09T14:12:17.185Z,23.40
2018-06-09T14:14:45.312Z,23.80
2018-06-09T14:17:13.427Z,24.50
2018-06-09T14:19:41.538Z,24.90
2018-06-09T14:22:09.632Z,25.20
2018-06-09T14:24:37.728Z,25.60
2018-06-09T14:27:05.832Z,25.80
2018-06-09T14:29:33.970Z,26.10
2018-06-09T14:32:02.232Z,26.30
2018-06-09T14:34:30.348Z,26.30
2018-06-09T14:36:58.468Z,26.30
2018-06-09T14:39:26.573Z,26.20
2018-06-09T14:41:54.676Z,26.20
2018-06-09T14:44:22.796Z,26.40
2018-06-09T14:46:50.884Z,26.40
2018-06-09T14:49:18.984Z,26.30
2018-06-09T14:51:47.095Z,26.30
2018-06-09T14:54:15.176Z,26.30
2018-06-09T14:56:44.674Z,26.40
2018-06-09T14:59:14.604Z,26.50
2018-06-09T15:01:45.163Z,26.90
2018-06-09T15:04:20.756Z,26.90
2018-06-09T15:06:50.460Z,26.80
2018-06-09T15:09:18.553Z,26.90
2018-06-09T15:11:53.420Z,26.90
2018-06-09T15:14:21.541Z,27.10
2018-06-09T15:16:49.642Z,27.30
2018-06-09T15:19:17.736Z,27.30
2018-06-09T15:21:45.838Z,27.50
2018-06-09T15:24:13.927Z,27.60
2018-06-09T15:26:42.034Z,27.60
2018-06-09T15:29:13.919Z,27.70
2018-06-09T15:31:42.041Z,27.80
2018-06-09T15:34:10.129Z,27.80
2018-06-09T15:36:38.268Z,27.90
2018-06-09T15:39:07.112Z,27.90
2018-06-09T15:41:35.224Z,28.10
2018-06-09T15:44:03.375Z,28.20
2018-06-09T15:46:31.555Z,28.30
2018-06-09T15:48:59.597Z,28.50
2018-06-09T15:51:27.719Z,28.60
2018-06-09T15:53:55.829Z,28.70
2018-06-09T15:56:23.925Z,28.80
2018-06-09T15:58:52.040Z,28.90
2018-06-09T16:01:20.149Z,29.00
2018-06-09T16:03:48.248Z,29.00
2018-06-09T16:06:16.370Z,29.10
2018-06-09T16:08:44.468Z,29.20
2018-06-09T16:11:12.568Z,29.50
2018-06-09T16:13:40.673Z,29.70
2018-06-09T16:16:08.796Z,29.90
2018-06-09T16:18:36.925Z,30.00
2018-06-09T16:21:12.573Z,30.10
2018-06-09T16:23:45.076Z,30.20
2018-06-09T16:26:13.186Z,30.20
2018-06-09T16:28:41.272Z,30.20
2018-06-09T16:31:09.392Z,30.20
2018-06-09T16:33:37.488Z,30.20
2018-06-09T16:36:05.608Z,30.20
2018-06-09T16:38:33.734Z,30.20
2018-06-09T16:41:09.410Z,30.40
2018-06-09T16:43:37.608Z,30.60
2018-06-09T16:46:12.336Z,30.80
2018-06-09T16:48:45.208Z,31.00
2018-06-09T16:51:13.303Z,31.20
2018-06-09T16:53:41.392Z,31.40
2018-06-09T16:56:09.555Z,31.60
2018-06-09T16:58:41.079Z,31.70
2018-06-09T17:01:09.540Z,32.00
2018-06-09T17:03:37.680Z,32.20
2018-06-09T17:06:05.824Z,32.20
2018-06-09T17:08:33.950Z,32.50
2018-06-09T17:11:02.088Z,32.70
2018-06-09T17:13:30.201Z,32.80
2018-06-09T17:15:58.311Z,32.90
2018-06-09T17:18:27.152Z,33.10
2018-06-09T17:20:55.229Z,33.20
2018-06-09T17:23:23.344Z,33.40
2018-06-09T17:25:51.428Z,33.50
2018-06-09T17:28:19.529Z,33.70
2018-06-09T17:30:47.612Z,33.70
2018-06-09T17:33:15.725Z,34.50
2018-06-09T17:35:43.813Z,33.90
2018-06-09T17:38:11.910Z,34.00
2018-06-09T17:40:40.000Z,34.20
2018-06-09T17:43:08.122Z,34.30
2018-06-09T17:45:36.227Z,34.50
2018-06-09T17:48:04.340Z,34.60
2018-06-09T17:50:32.447Z,34.60
2018-06-09T17:53:00.540Z,34.70
2018-06-09T17:55:28.627Z,34.90
2018-06-09T17:57:56.724Z,35.00
2018-06-09T18:00:24.840Z,35.00
2018-06-09T18:02:53.003Z,35.20
2018-06-09T18:05:21.097Z,35.30
2018-06-09T18:07:49.204Z,35.50
2018-06-09T18:10:17.300Z,35.60
2018-06-09T18:12:45.405Z,35.80
2018-06-09T18:15:13.492Z,35.90
2018-06-09T18:17:41.603Z,36.10
2018-06-09T18:20:09.723Z,36.30
2018-06-09T18:22:37.842Z,36.40
2018-06-09T18:25:05.996Z,36.50
2018-06-09T18:27:34.148Z,36.60
2018-06-09T18:30:02.242Z,36.80
2018-06-09T18:32:30.353Z,36.90
2018-06-09T18:34:58.440Z,37.10
2018-06-09T18:37:26.608Z,37.20
2018-06-09T18:39:54.788Z,37.20
2018-06-09T18:42:22.896Z,37.40
2018-06-09T18:44:50.996Z,37.50
2018-06-09T18:47:19.153Z,37.60
2018-06-09T18:49:47.244Z,37.70
2018-06-09T18:52:15.343Z,37.90
2018-06-09T18:54:43.452Z,38.00
2018-06-09T18:57:11.564Z,38.10
2018-06-09T18:59:39.661Z,38.20
2018-06-09T19:02:07.743Z,38.20
2018-06-09T19:04:35.847Z,38.30
2018-06-09T19:07:04.013Z,38.40
2018-06-09T19:09:32.092Z,38.60
2018-06-09T19:12:00.186Z,38.60
2018-06-09T19:14:28.272Z,38.70
2018-06-09T19:16:56.368Z,38.80
2018-06-09T19:19:24.464Z,38.90
2018-06-09T19:21:52.584Z,39.00
2018-06-09T19:24:20.681Z,39.10
2018-06-09T19:26:48.789Z,39.20
2018-06-09T19:29:16.916Z,39.30
2018-06-09T19:31:45.012Z,39.40
2018-06-09T19:34:13.133Z,39.50
2018-06-09T19:36:41.224Z,39.60
2018-06-09T19:39:09.369Z,39.70
2018-06-09T19:41:37.456Z,39.80
2018-06-09T19:44:05.597Z,39.90
2018-06-09T19:46:33.717Z,40.00
2018-06-09T19:49:01.877Z,40.10
2018-06-09T19:51:30.028Z,40.20
2018-06-09T19:53:58.147Z,42.40
2018-06-09T19:56:26.276Z,44.40
2018-06-09T19:58:54.380Z,45.70
2018-06-09T20:01:22.519Z,46.80
2018-06-09T20:03:50.701Z,48.40
2018-06-09T20:06:18.812Z,48.60
2018-06-09T20:08:46.916Z,49.00
2018-06-09T20:11:15.003Z,49.20
2018-06-09T20:13:43.100Z,49.80
2018-06-09T20:16:11.225Z,51.20
2018-06-09T20:18:39.320Z,51.60
2018-06-09T20:21:07.460Z,51.10
2018-06-09T20:23:35.587Z,51.00
2018-06-09T20:26:05.243Z,50.90
2018-06-09T20:28:33.741Z,50.90
2018-06-09T20:31:01.981Z,50.90
2018-06-09T20:33:30.116Z,51.40
2018-06-09T20:35:58.232Z,51.20
2018-06-09T20:38:26.348Z,51.10
2018-06-09T20:40:54.429Z,51.30
2018-06-09T20:43:22.545Z,51.10
2018-06-09T20:45:50.646Z,50.90
2018-06-09T20:48:18.833Z,51.20
2018-06-09T20:50:46.941Z,51.60
2018-06-09T20:53:15.036Z,51.60
2018-06-09T20:55:43.160Z,51.50
2018-06-09T20:58:11.265Z,51.80
2018-06-09T21:00:39.408Z,52.00
2018-06-09T21:03:07.516Z,52.20
2018-06-09T21:05:35.623Z,52.10
2018-06-09T21:08:03.749Z,52.20
2018-06-09T21:10:31.841Z,52.00
2018-06-09T21:12:59.945Z,52.00
2018-06-09T21:15:28.036Z,51.30
2018-06-09T21:17:56.149Z,51.30
2018-06-09T21:20:24.244Z,51.50
2018-06-09T21:22:52.367Z,52.20
2018-06-09T21:25:20.480Z,52.00
2018-06-09T21:27:54.097Z,52.20
2018-06-09T21:30:27.639Z,52.30
2018-06-09T21:33:01.089Z,51.70
2018-06-09T21:35:43.458Z,52.00
2018-06-09T21:38:16.493Z,51.90
2018-06-09T21:40:47.627Z,51.80
2018-06-09T21:43:21.296Z,52.10
2018-06-09T21:45:50.416Z,52.00
2018-06-09T21:48:19.213Z,52.30
2018-06-09T21:50:47.408Z,52.50
2018-06-09T21:53:15.545Z,52.70
2018-06-09T21:55:43.644Z,52.20
2018-06-09T21:58:11.753Z,52.10
2018-06-09T22:00:39.896Z,52.00
2018-06-09T22:03:08.033Z,51.20
2018-06-09T22:05:36.144Z,50.60
2018-06-09T22:08:04.260Z,50.10
2018-06-09T22:10:32.368Z,49.60
2018-06-09T22:13:00.496Z,49.20
2018-06-09T22:15:28.614Z,49.00
2018-06-09T22:17:56.703Z,48.70
2018-06-09T22:20:24.847Z,48.40
2018-06-09T22:22:52.976Z,48.20
2018-06-09T22:25:26.392Z,48.20
2018-06-09T22:27:54.543Z,48.10
2018-06-09T22:30:22.660Z,47.90
2018-06-09T22:32:50.772Z,48.20
2018-06-09T22:35:18.865Z,48.00
2018-06-09T22:37:47.035Z,48.00
2018-06-09T22:40:15.169Z,48.20
2018-06-09T22:42:43.288Z,48.40
2018-06-09T22:45:11.397Z,48.50
2018-06-09T22:47:39.504Z,48.50
2018-06-09T22:50:07.627Z,48.50
2018-06-09T22:52:35.734Z,48.50
2018-06-09T22:55:03.876Z,48.40
2018-06-09T22:57:32.005Z,48.50
2018-06-09T23:00:00.141Z,48.40
2018-06-09T23:02:28.239Z,48.30
2018-06-09T23:04:56.375Z,48.30
2018-06-09T23:07:24.478Z,48.30
2018-06-09T23:09:52.571Z,48.30
2018-06-09T23:12:20.686Z,48.30
2018-06-09T23:14:48.811Z,48.40
2018-06-09T23:17:16.972Z,48.40
2018-06-09T23:19:45.077Z,48.40
2018-06-09T23:22:13.227Z,48.50
2018-06-09T23:24:41.357Z,48.40
2018-06-09T23:27:09.476Z,48.50
2018-06-09T23:29:37.586Z,48.50
2018-06-09T23:32:06.357Z,48.60
2018-06-09T23:34:34.457Z,48.50
2018-06-09T23:37:02.584Z,48.60
2018-06-09T23:39:30.712Z,48.60
2018-06-09T23:41:58.898Z,48.50
2018-06-09T23:44:27.001Z,48.60
2018-06-09T23:46:55.149Z,48.70
2018-06-09T23:49:23.269Z,48.70
2018-06-09T23:51:51.427Z,48.70
2018-06-09T23:54:19.512Z,48.80
2018-06-09T23:56:47.608Z,48.80
2018-06-09T23:59:15.700Z,48.70
